createdAt,value
2023-03-29T00:00:02.797Z,9.97
2023-03-29T00:15:01.571Z,9.97
2023-03-29T00:30:01.984Z,9.97
2023-03-29T00:45:02.208Z,9.97
2023-03-29T01:00:01.313Z,9.97
2023-03-29T01:15:01.231Z,9.97
2023-03-29T01:30:01.768Z,9.97
2023-03-29T01:45:02.277Z,9.97
2023-03-29T02:00:01.272Z,9.97
2023-03-29T02:15:01.490Z,9.97
2023-03-29T02:30:01.892Z,9.97
2023-03-29T02:45:02.306Z,9.97
2023-03-29T03:00:01.559Z,9.97
2023-03-29T03:15:01.982Z,9.97
2023-03-29T03:30:01.816Z,9.97
2023-03-29T03:45:02.323Z,9.97
2023-03-29T04:00:02.925Z,9.97
2023-03-29T04:15:01.961Z,9.97
2023-03-29T04:30:01.765Z,9.97
2023-03-29T04:45:02.294Z,9.97
2023-03-29T05:00:02.885Z,9.97
2023-03-29T05:15:01.642Z,9.97
2023-03-29T05:30:02.794Z,4.1
2023-03-29T05:45:01.812Z,4.3
2023-03-29T06:00:01.693Z,4.51
2023-03-29T06:15:02.045Z,4.77
2023-03-29T06:30:01.444Z,4.88
2023-03-29T06:45:02.066Z,4.98
2023-03-29T07:00:03.048Z,5.34
2023-03-29T07:15:02.575Z,5.15
2023-03-29T07:30:02.141Z,5.46
2023-03-29T07:45:02.610Z,5.52
2023-03-29T08:00:02.892Z,5.65
2023-03-29T08:15:02.230Z,5.84
2023-03-29T08:30:01.773Z,6.26
2023-03-29T08:45:01.953Z,7.7
2023-03-29T09:00:02.211Z,7.7
2023-03-29T09:15:02.680Z,7.7
2023-03-29T09:30:01.609Z,7.7
2023-03-29T09:45:01.992Z,7.7
2023-03-29T10:00:02.122Z,7.7
2023-03-29T10:15:02.729Z,7.7
2023-03-29T10:30:03.205Z,7.7
2023-03-29T10:45:01.637Z,7.7
2023-03-29T11:00:02.183Z,7.7
2023-03-29T11:15:02.661Z,7.7
2023-03-29T11:30:01.571Z,7.7
2023-03-29T11:45:01.889Z,7.7
2023-03-29T12:00:01.951Z,7.7
2023-03-29T12:15:02.642Z,7.7
2023-03-29T12:30:03.083Z,7.7
2023-03-29T12:45:02.253Z,7.7
2023-03-29T13:00:02.073Z,7.7
2023-03-29T13:15:02.511Z,7.7
2023-03-29T13:30:02.863Z,7.7
2023-03-29T13:45:02.052Z,7.7
2023-03-29T14:00:01.672Z,7.7
2023-03-29T14:15:02.165Z,7.7
2023-03-29T14:30:02.709Z,7.7
2023-03-29T14:45:01.240Z,7.7
2023-03-29T15:00:01.780Z,7.7
2023-03-29T15:15:02.201Z,7.7
2023-03-29T15:30:01.392Z,7.7
2023-03-29T15:45:01.759Z,7.7
2023-03-29T16:00:02.097Z,7.7
2023-03-29T16:15:02.196Z,7.7
2023-03-29T16:30:02.820Z,7.7
2023-03-29T16:45:01.430Z,7.7
2023-03-29T17:00:01.812Z,7.7
2023-03-29T17:15:02.082Z,7.7
2023-03-29T17:30:01.361Z,7.7
2023-03-29T17:45:01.747Z,7.7
2023-03-29T18:00:02.167Z,7.7
2023-03-29T18:15:02.929Z,7.7
2023-03-29T18:30:02.388Z,7.7
2023-03-29T18:45:02.099Z,7.7
2023-03-29T19:00:02.707Z,7.7
2023-03-29T19:15:01.565Z,7.7
2023-03-29T19:30:01.938Z,7.7
2023-03-29T19:45:02.092Z,7.7
2023-03-29T20:00:02.713Z,7.7
2023-03-29T20:15:01.681Z,7.7
2023-03-29T20:30:02.052Z,7.7
2023-03-29T20:45:02.094Z,7.7
2023-03-29T21:00:02.704Z,7.7
2023-03-29T21:15:03.253Z,7.7
2023-03-29T21:30:01.613Z,7.7
2023-03-29T21:45:02.169Z,7.7
2023-03-29T22:00:01.308Z,7.7
2023-03-29T22:15:01.484Z,7.7
2023-03-29T22:30:01.766Z,7.7
2023-03-29T22:45:02.090Z,7.7
2023-03-29T23:00:02.536Z,7.7
2023-03-29T23:15:01.515Z,7.7
2023-03-29T23:30:01.911Z,7.7
2023-03-29T23:45:02.215Z,7.7
